Canton, New York
Current Conditions -  °F | °C
As of 2:53 AM on Monday 26 Jan 2015 (Local Time) from KMSS Reporting Station
Clear Clear  
Wind Chill: -23°   Ceiling: Unl
Heat Index: -11°   Visibility: 10mi
Dew Point: -17°   Wind: 5mph
Humidity: 75%   Direction: 210°SSW
Pressure: 30.18"   Gusts: NA
Location:  44.6°N, 75.17°W
Report Text: KMSS 260753Z AUTO 21004KT 10SM CLR M24/M27 A3018 RMK AO2 SLP232 T12391272
Loading
Personal Weather Stations






























Interactive Weather Map New forecast layout! Learn more

10-Day Weather Forecast

Advertisements
Track Severe Weather on mobile